sensor_id;sensor_type;location;lat;lon;timestamp;pressure;altitude;pressure_sealevel;temperature;humidity
69221;BME280;56331;51.992;20.910;2023-04-06T00:00:24;100736.95;;;22.06;25.18
69221;BME280;56331;51.992;20.910;2023-04-06T00:02:52;100731.97;;;22.05;25.17
69221;BME280;56331;51.992;20.910;2023-04-06T00:05:19;100738.91;;;22.05;25.27
69221;BME280;56331;51.992;20.910;2023-04-06T00:07:47;100739.46;;;22.05;25.25
69221;BME280;56331;51.992;20.910;2023-04-06T00:10:13;100736.95;;;22.06;25.27
69221;BME280;56331;51.992;20.910;2023-04-06T00:12:40;100739.00;;;22.03;25.33
69221;BME280;56331;51.992;20.910;2023-04-06T00:15:07;100735.48;;;22.00;25.42
69221;BME280;56331;51.992;20.910;2023-04-06T00:17:34;100736.95;;;21.97;25.50
69221;BME280;56331;51.992;20.910;2023-04-06T00:20:01;100731.98;;;21.97;25.51
69221;BME280;56331;51.992;20.910;2023-04-06T00:22:28;100730.02;;;21.97;25.49
69221;BME280;56331;51.992;20.910;2023-04-06T00:24:55;100733.95;;;21.96;25.43
69221;BME280;56331;51.992;20.910;2023-04-06T00:27:22;100728.73;;;21.95;25.51
69221;BME280;56331;51.992;20.910;2023-04-06T00:29:48;100727.83;;;21.97;25.53
69221;BME280;56331;51.992;20.910;2023-04-06T00:32:14;100723.67;;;21.97;25.48
69221;BME280;56331;51.992;20.910;2023-04-06T00:34:41;100727.73;;;21.99;25.45
69221;BME280;56331;51.992;20.910;2023-04-06T00:37:08;100723.58;;;21.99;25.43
69221;BME280;56331;51.992;20.910;2023-04-06T00:39:34;100717.22;;;21.99;25.36
69221;BME280;56331;51.992;20.910;2023-04-06T00:42:07;100720.00;;;21.99;25.45
69221;BME280;56331;51.992;20.910;2023-04-06T00:44:31;100718.13;;;21.97;25.47
69221;BME280;56331;51.992;20.910;2023-04-06T00:46:58;100712.09;;;21.95;25.63
69221;BME280;56331;51.992;20.910;2023-04-06T00:49:24;100714.63;;;21.94;25.58
69221;BME280;56331;51.992;20.910;2023-04-06T00:51:51;100711.05;;;21.93;25.69
69221;BME280;56331;51.992;20.910;2023-04-06T00:54:18;100711.86;;;21.94;25.61
69221;BME280;56331;51.992;20.910;2023-04-06T00:56:49;100707.92;;;21.95;25.49
69221;BME280;56331;51.992;20.910;2023-04-06T00:59:14;100711.19;;;21.97;25.46
69221;BME280;56331;51.992;20.910;2023-04-06T01:01:40;100710.38;;;21.96;25.48
69221;BME280;56331;51.992;20.910;2023-04-06T01:04:08;100705.90;;;21.98;25.44
69221;BME280;56331;51.992;20.910;2023-04-06T01:06:34;100711.45;;;21.98;25.35
69221;BME280;56331;51.992;20.910;2023-04-06T01:09:01;100706.12;;;21.99;25.33
69221;BME280;56331;51.992;20.910;2023-04-06T01:11:28;100703.93;;;21.98;25.34
69221;BME280;56331;51.992;20.910;2023-04-06T01:13:54;100699.77;;;21.98;25.27
69221;BME280;56331;51.992;20.910;2023-04-06T01:16:21;100700.09;;;21.97;25.33
69221;BME280;56331;51.992;20.910;2023-04-06T01:18:48;100699.86;;;21.96;25.36
69221;BME280;56331;51.992;20.910;2023-04-06T01:21:16;100698.96;;;21.98;25.34
69221;BME280;56331;51.992;20.910;2023-04-06T01:23:46;100700.34;;;21.98;25.29
69221;BME280;56331;51.992;20.910;2023-04-06T01:26:12;100693.64;;;21.99;25.39
69221;BME280;56331;51.992;20.910;2023-04-06T01:28:39;100698.61;;;21.99;25.34
69221;BME280;56331;51.992;20.910;2023-04-06T01:31:08;100692.25;;;21.99;25.33
69221;BME280;56331;51.992;20.910;2023-04-06T01:33:35;100692.84;;;21.98;25.37
69221;BME280;56331;51.992;20.910;2023-04-06T01:36:02;100689.70;;;22.00;25.35
69221;BME280;56331;51.992;20.910;2023-04-06T01:38:29;100690.06;;;21.98;25.31
69221;BME280;56331;51.992;20.910;2023-04-06T01:40:56;100691.45;;;21.98;25.27
69221;BME280;56331;51.992;20.910;2023-04-06T01:43:22;100693.41;;;21.98;25.31
69221;BME280;56331;51.992;20.910;2023-04-06T01:45:49;100685.41;;;21.96;25.46
69221;BME280;56331;51.992;20.910;2023-04-06T01:48:16;100684.34;;;21.95;25.56
69221;BME280;56331;51.992;20.910;2023-04-06T01:50:43;100686.08;;;21.93;25.63
69221;BME280;56331;51.992;20.910;2023-04-06T01:53:09;100685.83;;;21.92;25.59
69221;BME280;56331;51.992;20.910;2023-04-06T01:55:36;100676.95;;;21.93;25.52
69221;BME280;56331;51.992;20.910;2023-04-06T01:58:03;100672.80;;;21.93;25.51
69221;BME280;56331;51.992;20.910;2023-04-06T02:00:29;100674.73;;;21.92;25.46
69221;BME280;56331;51.992;20.910;2023-04-06T02:02:57;100675.80;;;21.94;25.54
69221;BME280;56331;51.992;20.910;2023-04-06T02:05:26;100677.90;;;21.97;25.16
69221;BME280;56331;51.992;20.910;2023-04-06T02:07:52;100677.31;;;21.97;25.02
69221;BME280;56331;51.992;20.910;2023-04-06T02:10:19;100664.28;;;21.98;24.91
69221;BME280;56331;51.992;20.910;2023-04-06T02:16:28;100666.22;;;21.97;24.40
69221;BME280;56331;51.992;20.910;2023-04-06T02:18:54;100663.13;;;21.99;24.24
69221;BME280;56331;51.992;20.910;2023-04-06T02:21:21;100662.90;;;21.98;24.05
69221;BME280;56331;51.992;20.910;2023-04-06T02:23:48;100653.19;;;21.98;23.97
69221;BME280;56331;51.992;20.910;2023-04-06T02:26:15;100651.22;;;21.98;23.86
69221;BME280;56331;51.992;20.910;2023-04-06T02:28:42;100651.80;;;21.98;23.74
69221;BME280;56331;51.992;20.910;2023-04-06T02:31:08;100648.77;;;21.97;23.65
69221;BME280;56331;51.992;20.910;2023-04-06T02:33:35;100651.55;;;21.97;23.58
69221;BME280;56331;51.992;20.910;2023-04-06T02:36:01;100641.26;;;21.97;23.48
69221;BME280;56331;51.992;20.910;2023-04-06T02:38:30;100641.03;;;21.96;23.38
69221;BME280;56331;51.992;20.910;2023-04-06T02:40:57;100639.41;;;21.95;23.32
69221;BME280;56331;51.992;20.910;2023-04-06T02:43:23;100643.00;;;21.96;23.27
69221;BME280;56331;51.992;20.910;2023-04-06T02:45:54;100636.06;;;21.96;23.24
69221;BME280;56331;51.992;20.910;2023-04-06T02:48:20;100638.03;;;21.95;23.22
69221;BME280;56331;51.992;20.910;2023-04-06T02:50:46;100640.22;;;21.96;23.11
69221;BME280;56331;51.992;20.910;2023-04-06T02:53:13;100637.45;;;21.96;23.04
69221;BME280;56331;51.992;20.910;2023-04-06T02:55:39;100641.03;;;21.96;22.98
69221;BME280;56331;51.992;20.910;2023-04-06T02:58:06;100642.42;;;21.96;22.94
69221;BME280;56331;51.992;20.910;2023-04-06T03:00:33;100642.73;;;21.95;22.88
69221;BME280;56331;51.992;20.910;2023-04-06T03:03:00;100642.73;;;21.95;22.70
69221;BME280;56331;51.992;20.910;2023-04-06T03:05:26;100641.80;;;21.91;22.98
69221;BME280;56331;51.992;20.910;2023-04-06T03:07:53;100646.54;;;21.90;23.31
69221;BME280;56331;51.992;20.910;2023-04-06T03:10:19;100638.31;;;21.88;23.50
69221;BME280;56331;51.992;20.910;2023-04-06T03:12:46;100639.70;;;21.88;23.55
69221;BME280;56331;51.992;20.910;2023-04-06T03:15:12;100640.51;;;21.88;23.74
69221;BME280;56331;51.992;20.910;2023-04-06T03:17:39;100643.86;;;21.88;23.84
69221;BME280;56331;51.992;20.910;2023-04-06T03:20:06;100641.89;;;21.88;23.95
69221;BME280;56331;51.992;20.910;2023-04-06T03:22:33;100643.59;;;21.87;24.13
69221;BME280;56331;51.992;20.910;2023-04-06T03:25:00;100647.53;;;21.85;24.16
69221;BME280;56331;51.992;20.910;2023-04-06T03:27:26;100644.18;;;21.86;24.08
69221;BME280;56331;51.992;20.910;2023-04-06T03:29:53;100652.27;;;21.85;24.14
69221;BME280;56331;51.992;20.910;2023-04-06T03:32:19;100647.05;;;21.83;24.18
69221;BME280;56331;51.992;20.910;2023-04-06T03:34:46;100648.92;;;21.85;24.21
69221;BME280;56331;51.992;20.910;2023-04-06T03:37:12;100639.80;;;21.85;24.08
69221;BME280;56331;51.992;20.910;2023-04-06T03:39:39;100647.53;;;21.85;24.14
69221;BME280;56331;51.992;20.910;2023-04-06T03:42:05;100649.50;;;21.85;24.20
69221;BME280;56331;51.992;20.910;2023-04-06T03:44:34;100644.50;;;21.84;24.16
69221;BME280;56331;51.992;20.910;2023-04-06T03:47:01;100646.23;;;21.83;24.30
69221;BME280;56331;51.992;20.910;2023-04-06T03:49:28;100647.05;;;21.83;24.35
69221;BME280;56331;51.992;20.910;2023-04-06T03:51:56;100649.59;;;21.82;24.38
69221;BME280;56331;51.992;20.910;2023-04-06T03:54:24;100648.20;;;21.82;24.48
69221;BME280;56331;51.992;20.910;2023-04-06T03:56:51;100645.89;;;21.84;24.49
69221;BME280;56331;51.992;20.910;2023-04-06T03:59:17;100650.05;;;21.84;24.47
69221;BME280;56331;51.992;20.910;2023-04-06T04:01:43;100645.43;;;21.82;24.37
69221;BME280;56331;51.992;20.910;2023-04-06T04:04:10;100645.34;;;21.85;24.27
69221;BME280;56331;51.992;20.910;2023-04-06T04:06:38;100646.95;;;21.86;24.18
69221;BME280;56331;51.992;20.910;2023-04-06T04:09:06;100644.66;;;21.88;24.08
69221;BME280;56331;51.992;20.910;2023-04-06T04:11:33;100646.86;;;21.89;24.00
69221;BME280;56331;51.992;20.910;2023-04-06T04:14:03;100649.63;;;21.89;23.93
69221;BME280;56331;51.992;20.910;2023-04-06T04:16:33;100645.70;;;21.90;23.80
69221;BME280;56331;51.992;20.910;2023-04-06T04:18:57;100643.77;;;21.90;23.71
69221;BME280;56331;51.992;20.910;2023-04-06T04:21:29;100647.34;;;21.91;23.66
69221;BME280;56331;51.992;20.910;2023-04-06T04:23:56;100647.34;;;21.91;23.57
69221;BME280;56331;51.992;20.910;2023-04-06T04:26:23;100642.12;;;21.89;23.55
69221;BME280;56331;51.992;20.910;2023-04-06T04:28:49;100650.70;;;21.90;23.50
69221;BME280;56331;51.992;20.910;2023-04-06T04:31:15;100635.77;;;21.89;23.48
69221;BME280;56331;51.992;20.910;2023-04-06T04:33:44;100639.12;;;21.88;23.38
69221;BME280;56331;51.992;20.910;2023-04-06T04:36:10;100635.53;;;21.88;23.32
69221;BME280;56331;51.992;20.910;2023-04-06T04:38:37;100637.95;;;21.89;23.26
69221;BME280;56331;51.992;20.910;2023-04-06T04:41:04;100638.54;;;21.89;23.22
69221;BME280;56331;51.992;20.910;2023-04-06T04:43:31;100632.77;;;21.88;23.24
69221;BME280;56331;51.992;20.910;2023-04-06T04:45:58;100629.41;;;21.88;23.26
69221;BME280;56331;51.992;20.910;2023-04-06T04:48:25;100628.83;;;21.89;23.24
69221;BME280;56331;51.992;20.910;2023-04-06T04:50:52;100623.86;;;21.88;23.23
69221;BME280;56331;51.992;20.910;2023-04-06T04:53:22;100629.41;;;21.88;23.23
69221;BME280;56331;51.992;20.910;2023-04-06T04:55:48;100621.90;;;21.89;23.19
69221;BME280;56331;51.992;20.910;2023-04-06T04:58:15;100619.22;;;21.86;23.16
69221;BME280;56331;51.992;20.910;2023-04-06T05:00:43;100615.06;;;21.86;23.18
69221;BME280;56331;51.992;20.910;2023-04-06T05:03:16;100617.83;;;21.86;23.13
69221;BME280;56331;51.992;20.910;2023-04-06T05:05:39;100617.02;;;21.85;23.14
69221;BME280;56331;51.992;20.910;2023-04-06T05:08:06;100621.41;;;21.87;23.13
69221;BME280;56331;51.992;20.910;2023-04-06T05:10:35;100624.19;;;21.87;23.10
69221;BME280;56331;51.992;20.910;2023-04-06T05:13:01;100624.45;;;21.88;23.10
69221;BME280;56331;51.992;20.910;2023-04-06T05:15:28;100616.67;;;21.87;23.06
69221;BME280;56331;51.992;20.910;2023-04-06T05:17:55;100623.61;;;21.87;23.07
69221;BME280;56331;51.992;20.910;2023-04-06T05:20:21;100621.67;;;21.88;23.10
69221;BME280;56331;51.992;20.910;2023-04-06T05:22:48;100618.64;;;21.87;23.11
69221;BME280;56331;51.992;20.910;2023-04-06T05:25:15;100622.22;;;21.87;23.07
69221;BME280;56331;51.992;20.910;2023-04-06T05:27:41;100623.06;;;21.88;23.13
69221;BME280;56331;51.992;20.910;2023-04-06T05:30:08;100615.28;;;21.87;23.05
69221;BME280;56331;51.992;20.910;2023-04-06T05:32:34;100622.80;;;21.87;23.05
69221;BME280;56331;51.992;20.910;2023-04-06T05:35:02;100612.86;;;21.85;23.00
69221;BME280;56331;51.992;20.910;2023-04-06T05:37:28;100622.80;;;21.87;23.04
69221;BME280;56331;51.992;20.910;2023-04-06T05:39:57;100616.22;;;21.85;23.04
69221;BME280;56331;51.992;20.910;2023-04-06T05:42:24;100609.28;;;21.85;23.00
69221;BME280;56331;51.992;20.910;2023-04-06T05:44:50;100613.09;;;21.87;23.06
69221;BME280;56331;51.992;20.910;2023-04-06T05:47:17;100607.90;;;21.85;23.08
69221;BME280;56331;51.992;20.910;2023-04-06T05:49:43;100602.67;;;21.83;23.21
69221;BME280;56331;51.992;20.910;2023-04-06T05:52:10;100608.45;;;21.84;23.33
69221;BME280;56331;51.992;20.910;2023-04-06T05:54:36;100610.19;;;21.83;23.27
69221;BME280;56331;51.992;20.910;2023-04-06T05:57:03;100608.80;;;21.83;23.33
69221;BME280;56331;51.992;20.910;2023-04-06T05:59:30;100606.83;;;21.83;23.26
69221;BME280;56331;51.992;20.910;2023-04-06T06:01:57;100609.83;;;21.84;23.39
69221;BME280;56331;51.992;20.910;2023-04-06T06:04:24;100612.05;;;21.85;23.49
69221;BME280;56331;51.992;20.910;2023-04-06T06:06:50;100612.05;;;21.85;23.60
69221;BME280;56331;51.992;20.910;2023-04-06T06:09:16;100599.90;;;21.83;23.73
69221;BME280;56331;51.992;20.910;2023-04-06T06:11:46;100601.28;;;21.83;23.78
69221;BME280;56331;51.992;20.910;2023-04-06T06:14:12;100609.28;;;21.85;23.82
69221;BME280;56331;51.992;20.910;2023-04-06T06:16:38;100601.52;;;21.84;23.98
69221;BME280;56331;51.992;20.910;2023-04-06T06:19:05;100597.70;;;21.83;24.05
69221;BME280;56331;51.992;20.910;2023-04-06T06:21:31;100591.09;;;21.81;24.17
69221;BME280;56331;51.992;20.910;2023-04-06T06:23:58;100597.45;;;21.82;24.28
69221;BME280;56331;51.992;20.910;2023-04-06T06:26:24;100597.13;;;21.83;24.44
69221;BME280;56331;51.992;20.910;2023-04-06T06:28:51;100591.35;;;21.82;24.40
69221;BME280;56331;51.992;20.910;2023-04-06T06:31:17;100591.35;;;21.82;24.41
69221;BME280;56331;51.992;20.910;2023-04-06T06:33:46;100583.03;;;21.82;24.40
69221;BME280;56331;51.992;20.910;2023-04-06T06:36:15;100584.88;;;21.84;24.40
69221;BME280;56331;51.992;20.910;2023-04-06T06:38:41;100585.71;;;21.85;24.48
69221;BME280;56331;51.992;20.910;2023-04-06T06:41:08;100590.42;;;21.84;24.42
69221;BME280;56331;51.992;20.910;2023-04-06T06:43:34;100588.71;;;21.86;24.35
69221;BME280;56331;51.992;20.910;2023-04-06T06:46:00;100585.94;;;21.86;24.44
69221;BME280;56331;51.992;20.910;2023-04-06T06:48:27;100580.97;;;21.85;24.48
69221;BME280;56331;51.992;20.910;2023-04-06T06:50:54;100576.23;;;21.86;24.46
69221;BME280;56331;51.992;20.910;2023-04-06T06:53:20;100572.07;;;21.86;24.41
69221;BME280;56331;51.992;20.910;2023-04-06T06:55:47;100582.59;;;21.87;24.41
69221;BME280;56331;51.992;20.910;2023-04-06T06:58:15;100583.97;;;21.87;24.40
69221;BME280;56331;51.992;20.910;2023-04-06T07:00:41;100581.45;;;21.88;24.39
69221;BME280;56331;51.992;20.910;2023-04-06T07:03:07;100593.94;;;21.88;24.34
69221;BME280;56331;51.992;20.910;2023-04-06T07:05:34;100578.10;;;21.88;24.52
69221;BME280;56331;51.992;20.910;2023-04-06T07:08:01;100579.48;;;21.88;24.59
69221;BME280;56331;51.992;20.910;2023-04-06T07:10:27;100581.69;;;21.89;24.60
69221;BME280;56331;51.992;20.910;2023-04-06T07:12:54;100584.69;;;21.90;24.59
69221;BME280;56331;51.992;20.910;2023-04-06T07:15:20;100581.36;;;21.90;24.58
69221;BME280;56331;51.992;20.910;2023-04-06T07:17:46;100582.17;;;21.91;24.72
69221;BME280;56331;51.992;20.910;2023-04-06T07:20:13;100573.49;;;21.92;24.71
69221;BME280;56331;51.992;20.910;2023-04-06T07:22:41;100561.59;;;21.92;24.92
69221;BME280;56331;51.992;20.910;2023-04-06T07:25:09;100565.75;;;21.92;25.05
69221;BME280;56331;51.992;20.910;2023-04-06T07:27:35;100571.07;;;21.91;25.04
69221;BME280;56331;51.992;20.910;2023-04-06T07:30:02;100563.88;;;21.90;25.03
69221;BME280;56331;51.992;20.910;2023-04-06T07:32:29;100570.49;;;21.91;25.06
69221;BME280;56331;51.992;20.910;2023-04-06T07:34:56;100568.98;;;21.88;25.58
69221;BME280;56331;51.992;20.910;2023-04-06T07:37:23;100571.84;;;21.85;26.12
69221;BME280;56331;51.992;20.910;2023-04-06T07:39:50;100571.36;;;21.83;26.35
69221;BME280;56331;51.992;20.910;2023-04-06T07:42:16;100570.78;;;21.83;26.68
69221;BME280;56331;51.992;20.910;2023-04-06T07:44:43;100559.91;;;21.84;27.41
69221;BME280;56331;51.992;20.910;2023-04-06T07:47:09;100565.94;;;21.87;27.86
69221;BME280;56331;51.992;20.910;2023-04-06T07:49:36;100566.75;;;21.87;27.43
69221;BME280;56331;51.992;20.910;2023-04-06T07:52:03;100571.75;;;21.88;27.10
69221;BME280;56331;51.992;20.910;2023-04-06T07:54:29;100558.59;;;21.91;27.00
69221;BME280;56331;51.992;20.910;2023-04-06T07:56:56;100560.91;;;21.95;27.06
69221;BME280;56331;51.992;20.910;2023-04-06T07:59:22;100556.20;;;21.95;27.17
69221;BME280;56331;51.992;20.910;2023-04-06T08:01:58;100557.81;;;21.96;27.22
69221;BME280;56331;51.992;20.910;2023-04-06T08:04:24;100552.75;;;21.98;27.30
69221;BME280;56331;51.992;20.910;2023-04-06T08:06:51;100556.55;;;22.00;27.69
69221;BME280;56331;51.992;20.910;2023-04-06T08:09:17;100553.45;;;22.01;27.75
69221;BME280;56331;51.992;20.910;2023-04-06T08:11:45;100554.65;;;22.06;27.92
69221;BME280;56331;51.992;20.910;2023-04-06T08:14:16;100561.23;;;22.08;28.08
69221;BME280;56331;51.992;20.910;2023-04-06T08:16:42;100555.94;;;22.09;28.05
69221;BME280;56331;51.992;20.910;2023-04-06T08:19:10;100559.19;;;22.11;27.96
69221;BME280;56331;51.992;20.910;2023-04-06T08:21:37;100553.28;;;22.13;27.98
69221;BME280;56331;51.992;20.910;2023-04-06T08:24:05;100549.02;;;22.15;28.02
69221;BME280;56331;51.992;20.910;2023-04-06T08:26:32;100561.51;;;22.15;28.14
69221;BME280;56331;51.992;20.910;2023-04-06T08:28:59;100549.50;;;22.17;28.19
69221;BME280;56331;51.992;20.910;2023-04-06T08:31:26;100555.56;;;22.19;28.40
69221;BME280;56331;51.992;20.910;2023-04-06T08:33:52;100551.41;;;22.19;28.40
69221;BME280;56331;51.992;20.910;2023-04-06T08:36:19;100544.69;;;22.20;28.21
69221;BME280;56331;51.992;20.910;2023-04-06T08:38:47;100543.30;;;22.20;27.92
69221;BME280;56331;51.992;20.910;2023-04-06T08:41:15;100540.91;;;22.25;27.04
69221;BME280;56331;51.992;20.910;2023-04-06T08:43:58;100543.80;;;22.28;26.76
69221;BME280;56331;51.992;20.910;2023-04-06T08:46:25;100549.03;;;22.30;26.70
69221;BME280;56331;51.992;20.910;2023-04-06T08:49:02;100540.80;;;22.27;26.63
69221;BME280;56331;51.992;20.910;2023-04-06T08:51:28;100542.52;;;22.26;26.65
69221;BME280;56331;51.992;20.910;2023-04-06T08:53:59;100539.84;;;22.23;26.55
69221;BME280;56331;51.992;20.910;2023-04-06T08:56:27;100537.55;;;22.25;26.38
69221;BME280;56331;51.992;20.910;2023-04-06T08:58:55;100528.30;;;22.21;26.33
69221;BME280;56331;51.992;20.910;2023-04-06T09:01:27;100532.45;;;22.21;26.20
69221;BME280;56331;51.992;20.910;2023-04-06T09:03:57;100528.52;;;22.22;26.07
69221;BME280;56331;51.992;20.910;2023-04-06T09:06:26;100522.75;;;22.21;25.94
69221;BME280;56331;51.992;20.910;2023-04-06T09:08:53;100521.00;;;22.23;25.92
69221;BME280;56331;51.992;20.910;2023-04-06T09:11:20;100528.20;;;22.24;25.93
69221;BME280;56331;51.992;20.910;2023-04-06T09:13:53;100524.13;;;22.21;26.38
69221;BME280;56331;51.992;20.910;2023-04-06T09:16:21;100518.81;;;22.22;26.19
69221;BME280;56331;51.992;20.910;2023-04-06T09:18:47;100521.91;;;22.21;26.20
69221;BME280;56331;51.992;20.910;2023-04-06T09:21:36;100513.66;;;22.18;26.22
69221;BME280;56331;51.992;20.910;2023-04-06T09:24:03;100506.82;;;22.16;26.32
69221;BME280;56331;51.992;20.910;2023-04-06T09:26:30;100506.20;;;22.19;26.37
69221;BME280;56331;51.992;20.910;2023-04-06T09:28:58;100507.88;;;22.17;26.22
69221;BME280;56331;51.992;20.910;2023-04-06T09:31:31;100506.02;;;22.15;26.13
69221;BME280;56331;51.992;20.910;2023-04-06T09:34:00;100501.15;;;22.12;26.34
69221;BME280;56331;51.992;20.910;2023-04-06T09:39:01;100500.32;;;22.05;26.74
69221;BME280;56331;51.992;20.910;2023-04-06T09:41:29;100502.03;;;22.04;26.85
69221;BME280;56331;51.992;20.910;2023-04-06T09:44:04;100500.42;;;22.03;26.89
69221;BME280;56331;51.992;20.910;2023-04-06T09:46:32;100501.81;;;22.03;27.08
69221;BME280;56331;51.992;20.910;2023-04-06T09:49:01;100511.84;;;22.01;27.24
69221;BME280;56331;51.992;20.910;2023-04-06T09:51:31;100499.14;;;22.00;27.35
69221;BME280;56331;51.992;20.910;2023-04-06T09:53:59;100500.05;;;21.98;27.51
69221;BME280;56331;51.992;20.910;2023-04-06T09:56:28;100501.43;;;21.98;27.57
69221;BME280;56331;51.992;20.910;2023-04-06T09:59:01;100502.02;;;21.98;27.68
69221;BME280;56331;51.992;20.910;2023-04-06T10:01:29;100494.72;;;21.99;27.65
69221;BME280;56331;51.992;20.910;2023-04-06T10:06:44;100497.02;;;21.97;28.52
69221;BME280;56331;51.992;20.910;2023-04-06T10:09:15;100497.27;;;21.98;28.37
69221;BME280;56331;51.992;20.910;2023-04-06T10:11:42;100486.75;;;21.98;28.13
69221;BME280;56331;51.992;20.910;2023-04-06T10:14:09;100486.41;;;21.99;28.02
69221;BME280;56331;51.992;20.910;2023-04-06T10:16:38;100479.24;;;21.98;27.98
69221;BME280;56331;51.992;20.910;2023-04-06T10:19:18;100478.88;;;22.00;27.92
69221;BME280;56331;51.992;20.910;2023-04-06T10:21:45;100475.56;;;22.00;27.79
69221;BME280;56331;51.992;20.910;2023-04-06T10:24:13;100481.11;;;22.00;27.71
69221;BME280;56331;51.992;20.910;2023-04-06T10:26:39;100474.72;;;22.00;27.67
69221;BME280;56331;51.992;20.910;2023-04-06T10:29:06;100467.79;;;22.00;27.63
69221;BME280;56331;51.992;20.910;2023-04-06T10:31:32;100468.95;;;21.99;27.64
69221;BME280;56331;51.992;20.910;2023-04-06T10:34:00;100465.27;;;22.01;27.58
69221;BME280;56331;51.992;20.910;2023-04-06T10:36:35;100460.63;;;21.99;27.60
69221;BME280;56331;51.992;20.910;2023-04-06T10:39:04;100461.44;;;21.99;27.47
69221;BME280;56331;51.992;20.910;2023-04-06T10:41:34;100455.08;;;21.99;27.47
69221;BME280;56331;51.992;20.910;2023-04-06T10:44:02;100450.44;;;21.97;27.42
69221;BME280;56331;51.992;20.910;2023-04-06T10:46:30;100451.83;;;21.97;27.44
69221;BME280;56331;51.992;20.910;2023-04-06T10:48:57;100459.34;;;21.96;27.45
69221;BME280;56331;51.992;20.910;2023-04-06T10:51:28;100453.80;;;21.96;27.48
69221;BME280;56331;51.992;20.910;2023-04-06T10:53:55;100451.93;;;21.94;27.46
69221;BME280;56331;51.992;20.910;2023-04-06T10:56:24;100445.58;;;21.94;27.42
69221;BME280;56331;51.992;20.910;2023-04-06T10:58:54;100444.19;;;21.94;27.42
69221;BME280;56331;51.992;20.910;2023-04-06T11:01:25;100440.25;;;21.95;27.34
69221;BME280;56331;51.992;20.910;2023-04-06T11:03:55;100441.31;;;21.96;27.29
69221;BME280;56331;51.992;20.910;2023-04-06T11:06:25;100435.77;;;21.96;27.16
69221;BME280;56331;51.992;20.910;2023-04-06T11:08:54;100434.28;;;21.99;27.04
69221;BME280;56331;51.992;20.910;2023-04-06T11:11:22;100431.28;;;21.98;26.98
69221;BME280;56331;51.992;20.910;2023-04-06T11:14:00;100429.31;;;21.98;26.89
69221;BME280;56331;51.992;20.910;2023-04-06T11:19:11;100423.19;;;21.99;26.67
69221;BME280;56331;51.992;20.910;2023-04-06T11:21:43;100420.73;;;21.97;26.58
69221;BME280;56331;51.992;20.910;2023-04-06T11:24:20;100417.16;;;21.97;26.53
69221;BME280;56331;51.992;20.910;2023-04-06T11:29:19;100417.96;;;21.97;26.47
69221;BME280;56331;51.992;20.910;2023-04-06T11:34:21;100411.03;;;21.97;26.39
69221;BME280;56331;51.992;20.910;2023-04-06T11:36:53;100409.31;;;21.99;26.33
69221;BME280;56331;51.992;20.910;2023-04-06T11:39:20;100409.89;;;21.98;26.24
69221;BME280;56331;51.992;20.910;2023-04-06T11:41:55;100404.92;;;21.98;26.20
69221;BME280;56331;51.992;20.910;2023-04-06T11:44:33;100406.31;;;21.98;26.18
69221;BME280;56331;51.992;20.910;2023-04-06T11:47:02;100404.09;;;21.97;26.17
69221;BME280;56331;51.992;20.910;2023-04-06T11:49:30;100402.96;;;21.98;26.14
69221;BME280;56331;51.992;20.910;2023-04-06T11:51:57;100401.80;;;21.99;26.08
69221;BME280;56331;51.992;20.910;2023-04-06T11:54:35;100396.83;;;21.99;26.05
69221;BME280;56331;51.992;20.910;2023-04-06T11:57:04;100392.67;;;21.99;26.04
69221;BME280;56331;51.992;20.910;2023-04-06T11:59:35;100386.90;;;21.98;26.04
69221;BME280;56331;51.992;20.910;2023-04-06T12:02:03;100381.35;;;21.98;26.04
69221;BME280;56331;51.992;20.910;2023-04-06T12:04:30;100375.91;;;21.95;26.06
69221;BME280;56331;51.992;20.910;2023-04-06T12:06:56;100377.84;;;21.95;26.14
69221;BME280;56331;51.992;20.910;2023-04-06T12:09:23;100377.05;;;21.94;26.16
69221;BME280;56331;51.992;20.910;2023-04-06T12:11:50;100379.59;;;21.93;26.17
69221;BME280;56331;51.992;20.910;2023-04-06T12:14:17;100370.47;;;21.93;26.21
69221;BME280;56331;51.992;20.910;2023-04-06T12:16:43;100365.73;;;21.93;26.28
69221;BME280;56331;51.992;20.910;2023-04-06T12:19:10;100358.09;;;21.90;26.34
69221;BME280;56331;51.992;20.910;2023-04-06T12:21:36;100360.28;;;21.91;26.36
69221;BME280;56331;51.992;20.910;2023-04-06T12:24:06;100353.68;;;21.89;26.37
69221;BME280;56331;51.992;20.910;2023-04-06T12:26:33;100364.55;;;21.88;26.42
69221;BME280;56331;51.992;20.910;2023-04-06T12:28:59;100370.42;;;21.87;26.42
69221;BME280;56331;51.992;20.910;2023-04-06T12:31:31;100367.91;;;21.88;26.43
69221;BME280;56331;51.992;20.910;2023-04-06T12:33:57;100362.00;;;21.89;26.43
69221;BME280;56331;51.992;20.910;2023-04-06T12:36:24;100353.09;;;21.90;26.47
69221;BME280;56331;51.992;20.910;2023-04-06T12:38:51;100361.41;;;21.90;26.48
69221;BME280;56331;51.992;20.910;2023-04-06T12:41:18;100360.03;;;21.90;26.47
69221;BME280;56331;51.992;20.910;2023-04-06T12:43:44;100355.06;;;21.89;26.49
69221;BME280;56331;51.992;20.910;2023-04-06T12:46:12;100351.70;;;21.90;26.50
69221;BME280;56331;51.992;20.910;2023-04-06T12:48:38;100356.81;;;21.88;26.51
69221;BME280;56331;51.992;20.910;2023-04-06T12:51:09;100355.97;;;21.87;26.49
69221;BME280;56331;51.992;20.910;2023-04-06T12:53:38;100351.27;;;21.88;26.51
69221;BME280;56331;51.992;20.910;2023-04-06T12:56:14;100346.52;;;21.88;26.50
69221;BME280;56331;51.992;20.910;2023-04-06T12:58:41;100341.55;;;21.88;26.51